createdAt,value
2022-08-30T00:03:23.169Z,26.26
2022-08-30T00:08:29.472Z,26.25
2022-08-30T00:13:35.922Z,26.25
2022-08-30T00:18:42.110Z,26.24
2022-08-30T00:23:48.471Z,26.24
2022-08-30T00:28:55.581Z,26.22
2022-08-30T00:34:01.839Z,26.22
2022-08-30T00:39:08.222Z,26.22
2022-08-30T00:44:14.501Z,26.22
2022-08-30T00:49:20.823Z,26.21
2022-08-30T00:54:27.595Z,26.20
2022-08-30T00:59:34.351Z,26.18
2022-08-30T01:04:42.671Z,26.18
2022-08-30T01:09:49.002Z,26.18
2022-08-30T01:14:55.442Z,26.17
2022-08-30T01:20:03.595Z,26.16
2022-08-30T01:25:12.331Z,26.17
2022-08-30T01:30:18.682Z,26.16
2022-08-30T01:35:25.226Z,26.15
2022-08-30T01:40:31.555Z,26.15
2022-08-30T01:45:37.944Z,26.14
2022-08-30T01:50:44.305Z,26.14
2022-08-30T01:55:50.541Z,26.13
2022-08-30T02:00:56.925Z,26.12
2022-08-30T02:06:05.832Z,26.12
2022-08-30T02:11:12.772Z,26.11
2022-08-30T02:16:23.299Z,26.11
2022-08-30T02:21:29.622Z,26.10
2022-08-30T02:26:37.766Z,26.09
2022-08-30T02:31:43.942Z,26.09
2022-08-30T02:36:50.236Z,26.07
2022-08-30T02:41:56.672Z,26.08
2022-08-30T02:47:03.361Z,26.08
2022-08-30T02:52:09.696Z,26.07
2022-08-30T02:57:20.119Z,26.06
2022-08-30T03:02:27.342Z,26.06
2022-08-30T03:07:33.602Z,26.05
2022-08-30T03:12:41.781Z,26.05
2022-08-30T03:17:48.063Z,26.05
2022-08-30T03:22:54.382Z,26.03
2022-08-30T03:28:00.775Z,26.03
2022-08-30T03:33:07.159Z,26.02
2022-08-30T03:38:13.582Z,26.02
2022-08-30T03:43:20.009Z,26.01
2022-08-30T03:48:26.837Z,26.01
2022-08-30T03:53:33.123Z,26.00
2022-08-30T03:58:41.028Z,25.99
2022-08-30T04:03:47.322Z,25.99
2022-08-30T04:08:53.683Z,25.98
2022-08-30T04:14:00.041Z,25.98
2022-08-30T04:19:06.433Z,25.98
2022-08-30T04:24:13.213Z,25.97
2022-08-30T04:29:19.522Z,25.97
2022-08-30T04:34:25.775Z,25.95
2022-08-30T04:39:31.981Z,25.95
2022-08-30T04:44:38.062Z,25.96
2022-08-30T04:49:44.342Z,25.95
2022-08-30T04:54:50.366Z,25.94
2022-08-30T04:59:57.052Z,25.95
2022-08-30T05:05:21.471Z,25.94
2022-08-30T05:10:28.162Z,25.95
2022-08-30T05:15:34.415Z,25.97
2022-08-30T05:20:40.972Z,25.96
2022-08-30T05:25:47.152Z,25.95
2022-08-30T05:30:53.423Z,25.97
2022-08-30T05:35:59.583Z,25.97
2022-08-30T05:41:10.536Z,25.97
2022-08-30T05:46:20.071Z,25.95
2022-08-30T05:51:29.063Z,25.95
2022-08-30T05:56:36.042Z,25.98
2022-08-30T06:01:43.344Z,25.99
2022-08-30T06:06:49.526Z,26.00
2022-08-30T06:11:55.774Z,26.02
2022-08-30T06:17:02.041Z,26.04
2022-08-30T06:22:08.272Z,26.08
2022-08-30T06:27:14.561Z,26.15
2022-08-30T06:32:20.995Z,26.21
2022-08-30T06:37:30.104Z,26.25
2022-08-30T06:42:36.581Z,26.29
2022-08-30T06:47:42.910Z,26.31
2022-08-30T06:52:51.082Z,26.34
2022-08-30T06:57:57.252Z,26.38
2022-08-30T07:03:04.134Z,26.39
2022-08-30T07:08:10.553Z,26.37
2022-08-30T07:13:17.386Z,26.32
2022-08-30T07:18:41.736Z,26.31
2022-08-30T07:23:53.065Z,26.31
2022-08-30T07:28:59.723Z,26.28
2022-08-30T07:34:06.402Z,26.25
2022-08-30T07:39:12.750Z,26.31
2022-08-30T07:44:19.422Z,26.39
2022-08-30T07:49:31.652Z,26.37
2022-08-30T07:54:38.041Z,26.31
2022-08-30T07:59:44.523Z,26.29
2022-08-30T08:04:51.078Z,26.30
2022-08-30T08:09:57.400Z,26.29
2022-08-30T08:15:06.714Z,26.28
2022-08-30T08:20:14.915Z,26.27
2022-08-30T08:25:21.421Z,26.30
2022-08-30T08:30:27.763Z,26.28
2022-08-30T08:35:34.603Z,26.27
2022-08-30T08:40:45.977Z,26.27
2022-08-30T08:45:56.020Z,26.25
2022-08-30T08:51:21.267Z,26.24
2022-08-30T08:56:27.332Z,26.22
2022-08-30T09:01:33.962Z,26.23
2022-08-30T09:06:47.062Z,26.23
2022-08-30T09:11:53.406Z,26.24
2022-08-30T09:17:04.067Z,26.30
2022-08-30T09:22:17.746Z,26.25
2022-08-30T09:27:26.092Z,26.23
2022-08-30T09:32:35.532Z,26.28
2022-08-30T09:37:42.748Z,26.29
2022-08-30T09:43:02.210Z,26.36
2022-08-30T09:48:28.882Z,26.35
2022-08-30T09:53:37.734Z,26.37
2022-08-30T09:58:55.536Z,26.39
2022-08-30T10:04:03.913Z,26.38
2022-08-30T10:09:17.952Z,26.40
2022-08-30T10:14:31.572Z,26.42
2022-08-30T10:19:45.463Z,26.41
2022-08-30T10:24:54.566Z,26.41
2022-08-30T10:30:03.062Z,26.40
2022-08-30T10:35:09.906Z,26.40
2022-08-30T10:40:36.877Z,26.36
2022-08-30T10:45:45.472Z,26.34
2022-08-30T10:50:53.921Z,26.34
2022-08-30T10:56:02.856Z,26.35
2022-08-30T11:01:24.539Z,26.32
2022-08-30T11:06:41.152Z,26.29
2022-08-30T11:12:01.732Z,26.28
2022-08-30T11:17:24.711Z,26.27
2022-08-30T11:22:36.719Z,26.28
2022-08-30T11:27:47.349Z,26.27
2022-08-30T11:33:02.295Z,26.24
2022-08-30T11:38:23.073Z,26.27
2022-08-30T11:43:46.496Z,26.24
2022-08-30T11:48:55.677Z,26.25
2022-08-30T11:54:05.521Z,26.26
2022-08-30T11:59:21.213Z,26.21
2022-08-30T12:04:30.773Z,26.25
2022-08-30T12:10:02.851Z,26.22
2022-08-30T12:15:09.182Z,26.23
2022-08-30T12:20:23.831Z,26.20
2022-08-30T12:25:32.907Z,26.20
2022-08-30T12:30:41.225Z,26.18
2022-08-30T12:35:48.441Z,26.20
2022-08-30T12:40:56.622Z,26.17
2022-08-30T12:46:07.480Z,26.16
2022-08-30T12:51:27.696Z,26.17
2022-08-30T12:56:49.487Z,26.19
2022-08-30T13:01:56.488Z,26.17
2022-08-30T13:07:03.978Z,26.16
2022-08-30T13:12:12.289Z,26.15
2022-08-30T13:17:25.501Z,26.15
2022-08-30T13:22:32.675Z,26.15
2022-08-30T13:27:40.232Z,26.15
2022-08-30T13:32:46.649Z,26.14
2022-08-30T13:37:53.293Z,26.13
2022-08-30T13:42:59.591Z,26.13
2022-08-30T13:48:07.442Z,26.14
2022-08-30T13:53:13.787Z,26.13
2022-08-30T13:58:20.541Z,26.13
2022-08-30T14:03:26.906Z,26.12
2022-08-30T14:08:52.335Z,26.11
2022-08-30T14:14:15.453Z,26.12
2022-08-30T14:19:23.961Z,26.13
2022-08-30T14:24:30.471Z,26.11
2022-08-30T14:29:36.775Z,26.10
2022-08-30T14:34:43.131Z,26.13
2022-08-30T14:39:52.085Z,26.11
2022-08-30T14:44:58.362Z,26.11
2022-08-30T14:50:05.412Z,26.11
2022-08-30T14:55:14.129Z,26.10
2022-08-30T15:00:21.145Z,26.10
2022-08-30T15:05:32.252Z,26.09
2022-08-30T15:10:41.742Z,26.11
2022-08-30T15:15:49.406Z,26.07
2022-08-30T15:20:56.832Z,26.06
2022-08-30T15:26:03.777Z,26.12
2022-08-30T15:31:10.644Z,26.08
2022-08-30T15:36:17.053Z,26.10
2022-08-30T15:41:24.795Z,26.11
2022-08-30T15:46:32.595Z,26.06
2022-08-30T15:51:41.148Z,26.05
2022-08-30T15:56:48.542Z,26.04
2022-08-30T16:01:54.922Z,26.06
2022-08-30T16:07:04.052Z,26.08
2022-08-30T16:12:11.161Z,26.12
2022-08-30T16:17:17.542Z,26.05
2022-08-30T16:22:26.072Z,26.06
2022-08-30T16:27:32.561Z,26.07
2022-08-30T16:32:39.663Z,26.04
2022-08-30T16:37:46.912Z,26.04
2022-08-30T16:42:53.385Z,26.05
2022-08-30T16:47:59.651Z,26.03
2022-08-30T16:53:06.005Z,26.06
2022-08-30T16:58:18.873Z,26.02
2022-08-30T17:03:25.761Z,26.01
2022-08-30T17:08:32.169Z,26.00
2022-08-30T17:13:38.609Z,26.00
2022-08-30T17:18:45.147Z,25.98
2022-08-30T17:23:51.290Z,26.00
2022-08-30T17:28:57.564Z,26.00
2022-08-30T17:34:05.971Z,25.98
2022-08-30T17:39:13.025Z,25.98
2022-08-30T17:44:19.562Z,25.98
2022-08-30T17:49:27.105Z,25.97
2022-08-30T17:54:34.261Z,25.97
2022-08-30T17:59:40.599Z,25.97
2022-08-30T18:04:46.971Z,25.96
2022-08-30T18:09:53.915Z,25.97
2022-08-30T18:15:00.878Z,25.95
2022-08-30T18:44:29.210Z,25.96
2022-08-30T19:11:07.362Z,25.94
2022-08-30T19:16:12.392Z,25.89
2022-08-30T19:21:17.032Z,25.88
2022-08-30T19:26:24.450Z,25.87
2022-08-30T19:31:31.542Z,25.88
2022-08-30T19:36:35.773Z,25.89
2022-08-30T19:41:39.873Z,25.85
2022-08-30T19:46:43.521Z,25.85
2022-08-30T19:51:47.353Z,25.85
2022-08-30T19:56:51.342Z,25.84
2022-08-30T20:01:55.216Z,25.84
2022-08-30T20:06:59.123Z,25.84
2022-08-30T20:12:03.562Z,25.84
2022-08-30T20:17:11.591Z,25.83
2022-08-30T20:22:15.812Z,25.82
2022-08-30T20:27:19.522Z,25.82
2022-08-30T20:32:24.271Z,25.81
2022-08-30T20:37:29.442Z,25.81
2022-08-30T20:42:33.094Z,25.80
2022-08-30T20:47:38.431Z,25.80
2022-08-30T20:52:42.256Z,25.80
2022-08-30T20:57:45.955Z,25.79
2022-08-30T21:02:49.836Z,25.78
2022-08-30T21:07:53.596Z,25.79
2022-08-30T21:12:57.316Z,25.78
2022-08-30T21:18:00.834Z,25.77
2022-08-30T21:23:04.764Z,25.78
2022-08-30T21:28:08.573Z,25.76
2022-08-30T21:33:12.517Z,25.76
2022-08-30T21:38:16.690Z,25.76
2022-08-30T21:43:20.662Z,25.76
2022-08-30T21:48:24.282Z,25.75
2022-08-30T21:53:27.688Z,25.75
2022-08-30T21:58:31.204Z,25.75
2022-08-30T22:03:34.728Z,25.74
2022-08-30T22:08:38.656Z,25.73
2022-08-30T22:13:43.897Z,25.73
2022-08-30T22:18:48.134Z,25.72
2022-08-30T22:23:52.443Z,25.72
2022-08-30T22:28:56.482Z,25.71
2022-08-30T22:34:00.323Z,25.71
2022-08-30T22:39:05.477Z,25.70
2022-08-30T22:44:09.293Z,25.68
2022-08-30T22:49:13.025Z,25.69
2022-08-30T22:54:17.363Z,25.69
2022-08-30T22:59:21.083Z,25.67
2022-08-30T23:04:36.373Z,25.68
2022-08-30T23:09:40.193Z,25.68
2022-08-30T23:14:43.914Z,25.66
2022-08-30T23:19:47.836Z,25.64
2022-08-30T23:25:12.615Z,25.64
2022-08-30T23:30:37.972Z,25.65
2022-08-30T23:36:00.644Z,25.65
2022-08-30T23:41:22.592Z,25.62
2022-08-30T23:46:54.673Z,25.62
2022-08-30T23:52:16.523Z,25.61
2022-08-30T23:57:38.162Z,25.60
